createdAt,value
2018-05-31T00:01:11.259Z,99313.66
2018-05-31T00:03:38.991Z,99311.97
2018-05-31T00:06:06.561Z,99310.42
2018-05-31T00:08:34.099Z,99313.09
2018-05-31T00:11:01.753Z,99314.47
2018-05-31T00:13:29.301Z,99317.97
2018-05-31T00:15:56.958Z,99311.41
2018-05-31T00:18:24.621Z,99309.58
2018-05-31T00:20:52.185Z,99303.08
2018-05-31T00:23:19.734Z,99294.33
2018-05-31T00:25:47.310Z,99299.58
2018-05-31T00:28:14.863Z,99295.33
2018-05-31T00:30:42.419Z,99305.39
2018-05-31T00:33:09.967Z,99299.22
2018-05-31T00:35:37.541Z,99300.28
2018-05-31T00:38:05.101Z,99296.43
2018-05-31T00:40:32.674Z,99282.23
2018-05-31T00:43:00.215Z,99274.54
2018-05-31T00:45:27.776Z,99259.20
2018-05-31T00:47:55.330Z,99240.20
2018-05-31T00:50:22.930Z,99247.69
2018-05-31T00:52:50.554Z,99264.94
2018-05-31T00:55:24.062Z,99274.21
2018-05-31T00:57:51.716Z,99275.42
2018-05-31T01:00:19.386Z,99267.40
2018-05-31T01:02:47.045Z,99259.84
2018-05-31T01:05:14.644Z,99265.42
2018-05-31T01:07:42.196Z,99258.94
2018-05-31T01:10:09.751Z,99270.88
2018-05-31T01:12:37.379Z,99254.58
2018-05-31T01:15:04.978Z,99242.62
2018-05-31T01:17:32.524Z,99237.47
2018-05-31T01:20:00.162Z,99233.89
2018-05-31T01:22:27.719Z,99229.48
2018-05-31T01:24:55.257Z,99224.02
2018-05-31T01:27:22.837Z,99205.03
2018-05-31T01:29:50.394Z,99193.21
2018-05-31T01:32:17.994Z,99189.91
2018-05-31T01:34:45.621Z,99183.91
2018-05-31T01:37:13.173Z,99167.23
2018-05-31T01:39:40.726Z,99142.36
2018-05-31T01:42:08.301Z,99122.63
2018-05-31T01:44:35.959Z,99107.40
2018-05-31T01:47:03.632Z,99097.18
2018-05-31T01:49:31.241Z,99094.05
2018-05-31T01:51:58.845Z,99083.84
2018-05-31T01:54:26.389Z,99095.88
2018-05-31T01:56:53.966Z,99113.30
2018-05-31T01:59:21.540Z,99141.08
2018-05-31T02:01:49.107Z,99163.23
2018-05-31T02:04:16.718Z,99171.27
2018-05-31T02:06:44.300Z,99158.14
2018-05-31T02:09:11.926Z,99156.87
2018-05-31T02:11:39.711Z,99161.95
2018-05-31T02:14:07.335Z,99164.91
2018-05-31T02:16:34.934Z,99164.63
2018-05-31T02:19:02.512Z,99164.19
2018-05-31T02:21:30.090Z,99157.28
2018-05-31T02:23:57.732Z,99159.38
2018-05-31T02:26:25.392Z,99159.94
2018-05-31T02:28:52.916Z,99166.14
2018-05-31T02:31:20.494Z,99167.12
2018-05-31T02:33:48.050Z,99161.95
2018-05-31T02:36:15.732Z,99152.17
2018-05-31T02:38:43.378Z,99148.78
2018-05-31T02:41:11.056Z,99148.22
2018-05-31T02:43:38.726Z,99151.06
2018-05-31T02:46:06.386Z,99153.85
2018-05-31T02:48:33.987Z,99156.87
2018-05-31T02:51:01.566Z,99168.52
2018-05-31T02:53:29.093Z,99170.59
2018-05-31T02:55:56.669Z,99163.63
2018-05-31T02:58:24.283Z,99152.59
2018-05-31T03:00:51.821Z,99146.93
2018-05-31T03:03:19.403Z,99148.03
2018-05-31T03:05:46.949Z,99145.64
2018-05-31T03:08:14.621Z,99139.87
2018-05-31T03:10:42.153Z,99140.91
2018-05-31T03:13:10.128Z,99128.49
2018-05-31T03:15:37.702Z,99125.98
2018-05-31T03:18:05.291Z,99112.55
2018-05-31T03:20:32.829Z,99101.92
2018-05-31T03:23:00.441Z,99103.71
2018-05-31T03:25:27.994Z,99117.72
2018-05-31T03:27:56.454Z,99121.19
2018-05-31T03:30:24.047Z,99117.34
2018-05-31T03:32:51.646Z,99112.27
2018-05-31T03:35:19.226Z,99115.92
2018-05-31T03:37:46.876Z,99126.48
2018-05-31T03:40:14.531Z,99127.53
2018-05-31T03:42:42.085Z,99132.06
2018-05-31T03:45:10.264Z,99135.81
2018-05-31T03:47:37.839Z,99128.73
2018-05-31T03:50:05.388Z,99125.70
2018-05-31T03:52:33.045Z,99123.88
2018-05-31T03:55:00.591Z,99119.75
2018-05-31T03:57:28.193Z,99116.24
2018-05-31T03:59:55.759Z,99110.57
2018-05-31T04:02:23.348Z,99101.08
2018-05-31T04:04:50.901Z,99098.62
2018-05-31T04:07:18.565Z,99107.69
2018-05-31T04:09:46.163Z,99111.20
2018-05-31T04:12:13.824Z,99121.42
2018-05-31T04:14:41.487Z,99123.95
2018-05-31T04:17:09.092Z,99121.09
2018-05-31T04:19:36.641Z,99139.53
2018-05-31T04:22:04.219Z,99139.20
2018-05-31T04:24:31.768Z,99147.50
2018-05-31T04:26:59.352Z,99151.98
2018-05-31T04:29:26.960Z,99161.17
2018-05-31T04:31:54.523Z,99167.15
2018-05-31T04:34:22.178Z,99159.38
2018-05-31T04:36:49.729Z,99158.34
2018-05-31T04:39:17.350Z,99156.64
2018-05-31T04:41:44.901Z,99162.94
2018-05-31T04:44:12.505Z,99162.11
2018-05-31T04:46:40.442Z,99162.16
2018-05-31T04:49:08.040Z,99162.05
2018-05-31T04:51:35.581Z,99159.95
2018-05-31T04:54:03.161Z,99158.86
2018-05-31T04:56:30.712Z,99155.70
2018-05-31T04:58:58.375Z,99151.28
2018-05-31T05:01:25.950Z,99147.37
2018-05-31T05:03:53.595Z,99148.42
2018-05-31T05:06:21.174Z,99145.95
2018-05-31T05:08:48.814Z,99146.12
2018-05-31T05:11:16.358Z,99145.31
2018-05-31T05:13:43.960Z,99143.44
2018-05-31T05:16:11.582Z,99148.77
2018-05-31T05:18:39.166Z,99162.67
2018-05-31T05:21:06.821Z,99165.92
2018-05-31T05:23:34.484Z,99178.13
2018-05-31T05:26:02.023Z,99178.69
2018-05-31T05:28:29.702Z,99179.44
2018-05-31T05:30:57.376Z,99191.75
2018-05-31T05:33:24.958Z,99189.02
2018-05-31T05:35:52.584Z,99193.23
2018-05-31T05:38:20.158Z,99202.69
2018-05-31T05:40:47.684Z,99203.58
2018-05-31T05:43:15.254Z,99206.74
2018-05-31T05:45:42.793Z,99209.72
2018-05-31T05:48:10.690Z,99208.39
2018-05-31T05:50:38.275Z,99210.05
2018-05-31T05:53:05.873Z,99212.01
2018-05-31T05:55:33.425Z,99208.97
2018-05-31T05:58:01.000Z,99210.56
2018-05-31T06:00:28.550Z,99211.56
2018-05-31T06:02:56.157Z,99211.92
2018-05-31T06:05:23.708Z,99205.66
2018-05-31T06:07:51.374Z,99215.81
2018-05-31T06:10:19.182Z,99218.07
2018-05-31T06:12:46.712Z,99222.91
2018-05-31T06:15:14.290Z,99229.83
2018-05-31T06:17:41.845Z,99223.45
2018-05-31T06:20:09.475Z,99228.94
2018-05-31T06:22:37.002Z,99240.27
2018-05-31T06:25:04.573Z,99235.53
2018-05-31T06:27:32.133Z,99239.96
2018-05-31T06:29:59.832Z,99246.03
2018-05-31T06:32:29.678Z,99252.23
2018-05-31T06:35:00.558Z,99248.41
2018-05-31T06:37:29.181Z,99250.27
2018-05-31T06:39:56.787Z,99250.61
2018-05-31T06:42:24.305Z,99260.41
2018-05-31T06:44:51.959Z,99256.45
2018-05-31T06:47:19.495Z,99260.34
2018-05-31T06:49:47.827Z,99251.57
2018-05-31T06:52:15.347Z,99252.20
2018-05-31T06:54:42.978Z,99247.47
2018-05-31T06:57:12.049Z,99254.20
2018-05-31T06:59:39.630Z,99251.03
2018-05-31T07:02:07.154Z,99257.22
2018-05-31T07:04:34.733Z,99259.52
2018-05-31T07:07:02.932Z,99254.24
2018-05-31T07:09:30.511Z,99256.86
2018-05-31T07:12:03.044Z,99267.27
2018-05-31T07:14:32.294Z,99263.84
2018-05-31T07:16:59.895Z,99264.30
2018-05-31T07:19:28.520Z,99269.98
2018-05-31T07:21:56.178Z,99270.34
2018-05-31T07:24:23.741Z,99276.61
2018-05-31T07:26:51.402Z,99273.67
2018-05-31T07:29:19.138Z,99270.92
2018-05-31T07:31:49.129Z,99269.00
2018-05-31T07:34:19.788Z,99274.92
2018-05-31T07:36:48.884Z,99269.59
2018-05-31T07:39:19.000Z,99272.77
2018-05-31T07:41:49.848Z,99273.75
2018-05-31T07:44:17.746Z,99281.12
2018-05-31T07:46:50.660Z,99287.27
2018-05-31T07:49:19.317Z,99288.22
2018-05-31T07:51:46.846Z,99291.23
2018-05-31T07:54:16.555Z,99287.13
2018-05-31T07:56:46.422Z,99293.36
2018-05-31T07:59:15.528Z,99294.88
2018-05-31T08:01:47.729Z,99300.97
2018-05-31T08:04:22.453Z,99301.17
2018-05-31T08:06:51.252Z,99303.80
2018-05-31T08:09:19.334Z,99292.89
2018-05-31T08:11:48.644Z,99298.27
2018-05-31T08:14:19.651Z,99287.90
2018-05-31T08:16:47.529Z,99284.80
2018-05-31T08:19:18.987Z,99292.45
2018-05-31T08:21:48.956Z,99287.62
2018-05-31T08:24:18.526Z,99298.27
2018-05-31T08:26:48.492Z,99292.77
2018-05-31T08:29:17.817Z,99301.80
2018-05-31T08:31:47.914Z,99301.34
2018-05-31T08:34:15.717Z,99301.20
2018-05-31T08:36:45.387Z,99300.65
2018-05-31T08:39:13.597Z,99300.56
2018-05-31T08:41:42.476Z,99307.83
2018-05-31T08:44:12.309Z,99305.80
2018-05-31T08:46:42.010Z,99298.45
2018-05-31T08:49:10.765Z,99296.53
2018-05-31T08:51:39.795Z,99302.24
2018-05-31T08:54:07.951Z,99299.39
2018-05-31T08:56:38.318Z,99303.49
2018-05-31T08:59:05.922Z,99315.05
2018-05-31T09:01:33.890Z,99314.89
2018-05-31T09:04:04.229Z,99321.14
2018-05-31T09:06:34.879Z,99314.17
2018-05-31T09:09:04.279Z,99324.80
2018-05-31T09:11:32.768Z,99326.38
2018-05-31T09:14:00.748Z,99325.69
2018-05-31T09:16:28.372Z,99326.35
2018-05-31T09:18:55.923Z,99322.52
2018-05-31T09:21:23.495Z,99319.32
2018-05-31T09:23:51.225Z,99321.09
2018-05-31T09:26:21.071Z,99326.12
2018-05-31T09:28:49.108Z,99323.47
2018-05-31T09:31:19.616Z,99327.97
2018-05-31T09:33:50.585Z,99328.64
2018-05-31T09:36:18.346Z,99328.27
2018-05-31T09:38:46.217Z,99325.91
2018-05-31T09:41:13.882Z,99320.31
2018-05-31T09:43:41.646Z,99311.49
2018-05-31T09:46:09.248Z,99320.59
2018-05-31T09:48:36.802Z,99315.23
2018-05-31T09:51:04.462Z,99324.25
2018-05-31T09:53:31.972Z,99321.06
2018-05-31T09:55:59.530Z,99311.25
2018-05-31T09:58:27.142Z,99309.70
2018-05-31T10:00:54.706Z,99308.52
2018-05-31T10:03:22.242Z,99312.37
2018-05-31T10:05:49.815Z,99319.93
2018-05-31T10:08:18.172Z,99313.93
2018-05-31T10:10:45.922Z,99318.70
2018-05-31T10:13:13.526Z,99316.73
2018-05-31T10:15:42.005Z,99315.51
2018-05-31T10:18:09.841Z,99309.46
2018-05-31T10:20:37.429Z,99307.43
2018-05-31T10:23:04.978Z,99306.55
2018-05-31T10:25:32.838Z,99316.17
2018-05-31T10:28:00.357Z,99311.86
2018-05-31T10:30:29.101Z,99310.44
2018-05-31T10:32:56.736Z,99313.03
2018-05-31T10:35:24.261Z,99303.14
2018-05-31T10:37:51.822Z,99301.78
2018-05-31T10:40:19.346Z,99306.89
2018-05-31T10:42:46.999Z,99308.66
2018-05-31T10:45:14.521Z,99302.64
2018-05-31T10:47:42.082Z,99300.27
2018-05-31T10:50:09.603Z,99301.95
2018-05-31T10:52:37.237Z,99306.41
2018-05-31T10:55:04.757Z,99302.54
2018-05-31T10:57:32.316Z,99305.84
2018-05-31T10:59:59.915Z,99304.27
2018-05-31T11:02:27.467Z,99304.90
2018-05-31T11:04:54.989Z,99312.63
2018-05-31T11:07:22.537Z,99301.66
2018-05-31T11:09:50.128Z,99297.35
2018-05-31T11:12:17.689Z,99285.40
2018-05-31T11:14:45.228Z,99286.47
2018-05-31T11:17:12.802Z,99285.62
2018-05-31T11:19:40.327Z,99281.12
2018-05-31T11:22:07.882Z,99280.17
2018-05-31T11:24:35.514Z,99273.41
2018-05-31T11:27:03.067Z,99275.02
2018-05-31T11:29:30.640Z,99278.88
2018-05-31T11:31:58.291Z,99271.31
2018-05-31T11:34:25.851Z,99269.50
2018-05-31T11:36:53.413Z,99266.03
2018-05-31T11:39:20.967Z,99268.35
2018-05-31T11:41:48.530Z,99265.19
2018-05-31T11:44:16.095Z,99264.83
2018-05-31T11:46:43.652Z,99264.07
2018-05-31T11:49:12.159Z,99274.52
2018-05-31T11:51:39.708Z,99273.00
2018-05-31T11:54:07.264Z,99272.80
2018-05-31T11:56:34.811Z,99274.97
2018-05-31T11:59:02.364Z,99268.59
2018-05-31T12:01:29.914Z,99275.31
2018-05-31T12:03:57.484Z,99269.14
2018-05-31T12:06:25.046Z,99267.57
2018-05-31T12:08:52.605Z,99262.83
2018-05-31T12:11:20.174Z,99258.14
2018-05-31T12:13:47.754Z,99253.75
2018-05-31T12:16:15.275Z,99250.80
2018-05-31T12:18:42.829Z,99253.75
2018-05-31T12:21:10.382Z,99251.14
2018-05-31T12:23:37.959Z,99245.58
2018-05-31T12:26:05.488Z,99240.95
2018-05-31T12:28:33.077Z,99237.86
2018-05-31T12:31:00.642Z,99239.87
2018-05-31T12:33:28.187Z,99233.69
2018-05-31T12:35:55.718Z,99239.61
2018-05-31T12:38:23.319Z,99233.97
2018-05-31T12:40:50.873Z,99223.48
2018-05-31T12:43:18.422Z,99225.83
2018-05-31T12:45:46.000Z,99217.84
2018-05-31T12:48:13.565Z,99219.73
2018-05-31T12:50:41.214Z,99214.44
2018-05-31T12:53:08.786Z,99217.34
2018-05-31T12:55:36.332Z,99216.22
2018-05-31T12:58:03.930Z,99213.80
2018-05-31T13:00:31.465Z,99213.00
2018-05-31T13:02:59.218Z,99210.59
2018-05-31T13:05:26.774Z,99212.37
2018-05-31T13:07:54.333Z,99214.03
2018-05-31T13:10:21.892Z,99214.34
2018-05-31T13:12:49.475Z,99208.73
2018-05-31T13:15:17.024Z,99207.86
2018-05-31T13:17:44.577Z,99211.20
2018-05-31T13:20:12.481Z,99210.19
2018-05-31T13:22:40.101Z,99215.80
2018-05-31T13:25:07.642Z,99212.80
2018-05-31T13:27:35.322Z,99212.53
2018-05-31T13:30:02.892Z,99208.67
2018-05-31T13:32:30.543Z,99208.58
2018-05-31T13:34:58.070Z,99207.52
2018-05-31T13:37:25.661Z,99200.59
2018-05-31T13:39:53.219Z,99199.05
2018-05-31T13:42:20.779Z,99207.16
2018-05-31T13:44:48.331Z,99204.16
2018-05-31T13:47:15.855Z,99207.44
2018-05-31T13:49:43.466Z,99204.15
2018-05-31T13:52:11.121Z,99208.35
2018-05-31T13:54:38.763Z,99215.95
2018-05-31T13:57:06.342Z,99223.57
2018-05-31T13:59:33.895Z,99222.58
2018-05-31T14:02:01.469Z,99218.75
2018-05-31T14:04:29.018Z,99209.19
2018-05-31T14:06:56.683Z,99215.08
2018-05-31T14:09:24.228Z,99216.77
2018-05-31T14:11:51.803Z,99214.76
2018-05-31T14:14:20.330Z,99219.10
2018-05-31T14:16:47.943Z,99204.99
2018-05-31T14:19:15.487Z,99206.86
2018-05-31T14:21:43.032Z,99196.46
2018-05-31T14:24:10.725Z,99209.33
2018-05-31T14:26:38.287Z,99199.43
2018-05-31T14:29:05.945Z,99196.83
2018-05-31T14:31:33.502Z,99190.19
2018-05-31T14:34:01.170Z,99195.48
2018-05-31T14:36:28.695Z,99204.20
2018-05-31T14:38:57.129Z,99190.02
2018-05-31T14:41:24.678Z,99194.06
2018-05-31T14:43:52.325Z,99185.32
2018-05-31T14:46:19.859Z,99176.76
2018-05-31T14:48:47.425Z,99179.25
2018-05-31T14:51:15.188Z,99174.24
2018-05-31T14:53:42.939Z,99175.06
2018-05-31T14:56:10.534Z,99163.88
2018-05-31T14:58:38.094Z,99166.80
2018-05-31T15:01:05.649Z,99167.53
2018-05-31T15:03:33.210Z,99158.93
2018-05-31T15:06:00.725Z,99154.48
2018-05-31T15:08:28.280Z,99153.22
2018-05-31T15:10:55.797Z,99146.08
2018-05-31T15:13:23.447Z,99156.48
2018-05-31T15:15:50.987Z,99151.39
2018-05-31T15:18:18.679Z,99145.37
2018-05-31T15:20:46.240Z,99139.55
2018-05-31T15:23:13.767Z,99141.23
2018-05-31T15:25:41.347Z,99137.67
2018-05-31T15:28:08.906Z,99143.30
2018-05-31T15:30:36.451Z,99148.80
2018-05-31T15:33:03.998Z,99145.44
2018-05-31T15:35:31.589Z,99153.46
2018-05-31T15:37:59.100Z,99155.05
2018-05-31T15:40:26.706Z,99156.27
2018-05-31T15:42:54.266Z,99155.84
2018-05-31T15:45:21.834Z,99155.66
2018-05-31T15:47:49.484Z,99167.88
2018-05-31T15:50:17.041Z,99158.22
2018-05-31T15:52:44.610Z,99158.64
2018-05-31T15:55:12.269Z,99151.08
2018-05-31T15:57:39.823Z,99152.88
2018-05-31T16:00:07.397Z,99152.61
2018-05-31T16:02:34.944Z,99147.95
2018-05-31T16:05:02.603Z,99154.19
2018-05-31T16:07:30.172Z,99142.30
2018-05-31T16:09:57.931Z,99150.97
2018-05-31T16:12:26.928Z,99153.63
2018-05-31T16:14:54.685Z,99149.39
2018-05-31T16:17:22.238Z,99151.80
2018-05-31T16:19:50.291Z,99143.13
2018-05-31T16:22:17.874Z,99148.41
2018-05-31T16:24:45.946Z,99139.98
2018-05-31T16:27:13.607Z,99133.39
2018-05-31T16:29:41.475Z,99140.06
2018-05-31T16:32:15.108Z,99143.04
2018-05-31T16:34:43.659Z,99132.41
2018-05-31T16:37:11.202Z,99139.69
2018-05-31T16:39:39.066Z,99137.31
2018-05-31T16:42:06.654Z,99132.84
2018-05-31T16:44:34.214Z,99141.89
2018-05-31T16:47:01.738Z,99154.67
2018-05-31T16:49:29.320Z,99151.45
2018-05-31T16:51:56.881Z,99150.21
2018-05-31T16:54:24.521Z,99138.72
2018-05-31T16:56:52.073Z,99138.60
2018-05-31T16:59:19.608Z,99133.35
2018-05-31T17:01:47.228Z,99138.33
2018-05-31T17:04:14.779Z,99135.64
2018-05-31T17:06:42.338Z,99134.29
2018-05-31T17:09:09.897Z,99130.53
2018-05-31T17:11:37.458Z,99122.93
2018-05-31T17:14:05.018Z,99120.45
2018-05-31T17:16:32.589Z,99125.98
2018-05-31T17:19:00.114Z,99122.41
2018-05-31T17:21:27.665Z,99126.92
2018-05-31T17:23:55.201Z,99128.55
2018-05-31T17:26:23.144Z,99127.81
2018-05-31T17:28:50.950Z,99126.70
2018-05-31T17:31:18.669Z,99119.44
2018-05-31T17:33:46.207Z,99116.54
2018-05-31T17:36:13.872Z,99121.09
2018-05-31T17:38:41.436Z,99116.68
2018-05-31T17:41:09.511Z,99125.52
2018-05-31T17:43:37.265Z,99116.19
2018-05-31T17:46:04.927Z,99122.45
2018-05-31T17:48:32.442Z,99120.20
2018-05-31T17:50:59.994Z,99129.22
2018-05-31T17:53:28.749Z,99124.27
2018-05-31T17:55:56.496Z,99118.63
2018-05-31T17:58:24.019Z,99116.52
2018-05-31T18:00:51.577Z,99117.48
2018-05-31T18:03:19.136Z,99117.67
2018-05-31T18:05:46.681Z,99118.92
2018-05-31T18:08:14.985Z,99131.55
2018-05-31T18:10:42.614Z,99125.94
2018-05-31T18:13:10.239Z,99122.52
2018-05-31T18:15:37.789Z,99120.66
2018-05-31T18:18:05.348Z,99126.30
2018-05-31T18:20:32.918Z,99131.65
2018-05-31T18:23:00.467Z,99140.45
2018-05-31T18:25:28.023Z,99140.45
2018-05-31T18:27:55.549Z,99142.84
2018-05-31T18:30:23.102Z,99137.91
2018-05-31T18:32:50.706Z,99151.89
2018-05-31T18:35:18.230Z,99151.16
2018-05-31T18:37:45.825Z,99153.91
2018-05-31T18:40:13.905Z,99155.94
2018-05-31T18:42:41.566Z,99150.80
2018-05-31T18:45:09.115Z,99152.34
2018-05-31T18:47:36.778Z,99152.87
2018-05-31T18:50:04.337Z,99156.45
2018-05-31T18:52:31.897Z,99159.64
2018-05-31T18:55:01.212Z,99157.09
2018-05-31T18:57:29.078Z,99174.75
2018-05-31T18:59:57.096Z,99181.36
2018-05-31T19:02:25.147Z,99187.66
2018-05-31T19:04:55.213Z,99196.81
2018-05-31T19:07:26.860Z,99188.89
2018-05-31T19:09:54.437Z,99188.45
2018-05-31T19:12:27.362Z,99185.87
2018-05-31T19:14:54.991Z,99191.14
2018-05-31T19:17:22.569Z,99190.78
2018-05-31T19:19:55.947Z,99198.88
2018-05-31T19:22:23.501Z,99194.67
2018-05-31T19:24:56.700Z,99207.50
2018-05-31T19:27:24.354Z,99209.44
2018-05-31T19:29:51.902Z,99207.26
2018-05-31T19:32:19.506Z,99213.28
2018-05-31T19:34:47.036Z,99224.18
2018-05-31T19:37:14.704Z,99223.41
2018-05-31T19:39:42.288Z,99219.70
2018-05-31T19:42:15.390Z,99223.59
2018-05-31T19:44:42.918Z,99222.59
2018-05-31T19:47:10.485Z,99222.40
2018-05-31T19:49:38.023Z,99225.20
2018-05-31T19:52:11.324Z,99224.69
2018-05-31T19:54:38.875Z,99223.65
2018-05-31T19:57:06.533Z,99222.33
2018-05-31T19:59:39.830Z,99223.50
2018-05-31T20:02:13.049Z,99225.31
2018-05-31T20:04:40.584Z,99228.81
2018-05-31T20:07:11.488Z,99233.39
2018-05-31T20:09:39.489Z,99236.75
2018-05-31T20:12:07.040Z,99240.91
2018-05-31T20:14:37.853Z,99242.66
2018-05-31T20:17:09.189Z,99242.21
2018-05-31T20:19:40.401Z,99256.81
2018-05-31T20:22:11.299Z,99255.64
2018-05-31T20:24:42.912Z,99259.23
2018-05-31T20:27:15.222Z,99250.41
2018-05-31T20:29:45.428Z,99255.92
2018-05-31T20:32:16.676Z,99249.16
2018-05-31T20:34:47.084Z,99243.12
2018-05-31T20:37:17.371Z,99243.17
2018-05-31T20:39:47.087Z,99245.25
2018-05-31T20:42:23.189Z,99237.69
2018-05-31T20:44:53.891Z,99241.95
2018-05-31T20:47:25.019Z,99250.34
2018-05-31T20:49:56.140Z,99242.34
2018-05-31T20:52:24.284Z,99240.41
2018-05-31T20:54:51.811Z,99238.47
2018-05-31T20:57:19.581Z,99237.55
2018-05-31T20:59:47.138Z,99243.80
2018-05-31T21:02:14.862Z,99230.94
2018-05-31T21:04:42.716Z,99227.73
2018-05-31T21:07:10.299Z,99236.45
2018-05-31T21:09:37.953Z,99243.44
2018-05-31T21:12:05.921Z,99219.08
2018-05-31T21:14:34.092Z,99217.23
2018-05-31T21:17:01.754Z,99217.04
2018-05-31T21:19:30.149Z,99211.55
2018-05-31T21:21:57.706Z,99217.09
2018-05-31T21:24:25.274Z,99217.61
2018-05-31T21:26:52.823Z,99220.57
2018-05-31T21:29:20.455Z,99233.40
2018-05-31T21:31:48.033Z,99230.00
2018-05-31T21:34:16.083Z,99223.86
2018-05-31T21:36:44.866Z,99214.73
2018-05-31T21:39:14.089Z,99225.41
2018-05-31T21:41:42.868Z,99236.06
2018-05-31T21:44:13.585Z,99234.25
2018-05-31T21:46:42.549Z,99238.05
2018-05-31T21:49:10.223Z,99226.48
2018-05-31T21:51:43.773Z,99223.54
2018-05-31T21:54:14.640Z,99220.65
2018-05-31T21:56:45.704Z,99230.31
2018-05-31T21:59:13.681Z,99235.80
2018-05-31T22:01:44.013Z,99238.40
2018-05-31T22:04:13.849Z,99265.88
2018-05-31T22:06:43.110Z,99261.86
2018-05-31T22:09:13.067Z,99260.45
2018-05-31T22:11:42.011Z,99254.35
2018-05-31T22:14:09.721Z,99247.18
2018-05-31T22:16:37.619Z,99240.41
2018-05-31T22:19:06.274Z,99252.12
2018-05-31T22:21:34.777Z,99257.65
2018-05-31T22:24:02.928Z,99273.38
2018-05-31T22:26:30.458Z,99278.54
2018-05-31T22:28:58.032Z,99271.79
2018-05-31T22:31:25.560Z,99285.37
2018-05-31T22:33:56.811Z,99290.36
2018-05-31T22:36:24.563Z,99305.84
2018-05-31T22:38:52.924Z,99330.05
2018-05-31T22:41:22.514Z,99345.50
2018-05-31T22:43:51.021Z,99360.27
2018-05-31T22:46:18.973Z,99375.87
2018-05-31T22:48:48.358Z,99361.95
2018-05-31T22:51:16.529Z,99338.52
2018-05-31T22:53:45.009Z,99307.36
2018-05-31T22:56:13.234Z,99322.08
2018-05-31T22:58:41.734Z,99353.25
2018-05-31T23:01:10.065Z,99384.76
2018-05-31T23:03:40.346Z,99405.89
2018-05-31T23:06:09.814Z,99414.87
2018-05-31T23:08:43.896Z,99409.61
2018-05-31T23:11:13.456Z,99395.69
2018-05-31T23:13:41.569Z,99389.55
2018-05-31T23:16:10.569Z,99379.26
2018-05-31T23:18:38.625Z,99375.16
2018-05-31T23:21:07.027Z,99368.22
2018-05-31T23:23:36.306Z,99369.58
2018-05-31T23:26:05.870Z,99387.28
2018-05-31T23:28:34.534Z,99399.77
2018-05-31T23:31:04.575Z,99397.80
2018-05-31T23:33:32.379Z,99393.31
2018-05-31T23:36:00.165Z,99388.31
2018-05-31T23:38:27.713Z,99395.84
2018-05-31T23:40:55.270Z,99400.09
2018-05-31T23:43:22.823Z,99403.80
2018-05-31T23:45:50.483Z,99400.88
2018-05-31T23:48:18.355Z,99398.77
2018-05-31T23:50:46.533Z,99407.32
2018-05-31T23:53:15.315Z,99421.73
2018-05-31T23:55:43.657Z,99443.41
2018-05-31T23:58:11.226Z,99444.30
